createdAt,value
2019-02-21T00:02:26.379Z,16.82
2019-02-21T00:04:53.331Z,16.85
2019-02-21T00:07:20.346Z,16.88
2019-02-21T00:09:47.697Z,16.86
2019-02-21T00:12:14.636Z,16.83
2019-02-21T00:14:41.858Z,16.80
2019-02-21T00:17:09.108Z,16.77
2019-02-21T00:19:36.502Z,16.74
2019-02-21T00:22:03.488Z,16.72
2019-02-21T00:24:30.812Z,16.71
2019-02-21T00:26:58.131Z,16.68
2019-02-21T00:29:25.066Z,16.67
2019-02-21T00:31:52.484Z,16.64
2019-02-21T00:34:19.471Z,16.60
2019-02-21T00:36:46.727Z,16.60
2019-02-21T00:39:13.715Z,16.59
2019-02-21T00:41:41.006Z,16.60
2019-02-21T00:44:07.914Z,16.62
2019-02-21T00:46:35.082Z,16.63
2019-02-21T00:49:02.047Z,16.63
2019-02-21T00:51:29.020Z,16.67
2019-02-21T00:53:56.372Z,16.68
2019-02-21T00:56:23.254Z,16.69
2019-02-21T00:58:50.473Z,16.70
2019-02-21T01:01:17.448Z,16.68
2019-02-21T01:03:44.448Z,16.67
2019-02-21T01:06:11.391Z,16.68
2019-02-21T01:08:38.284Z,16.67
2019-02-21T01:11:05.505Z,16.68
2019-02-21T01:13:33.517Z,16.66
2019-02-21T01:16:00.486Z,16.61
2019-02-21T01:18:27.457Z,16.62
2019-02-21T01:20:54.757Z,16.64
2019-02-21T01:23:21.707Z,16.65
2019-02-21T01:25:49.064Z,16.64
2019-02-21T01:28:16.380Z,16.66
2019-02-21T01:30:43.617Z,16.67
2019-02-21T01:33:11.101Z,16.64
2019-02-21T01:35:38.324Z,16.65
2019-02-21T01:38:05.319Z,16.63
2019-02-21T01:40:32.310Z,16.60
2019-02-21T01:42:59.724Z,16.59
2019-02-21T01:45:27.026Z,16.60
2019-02-21T01:47:54.005Z,16.58
2019-02-21T01:50:20.946Z,16.58
2019-02-21T01:52:47.958Z,16.60
2019-02-21T01:55:15.232Z,16.58
2019-02-21T01:57:42.237Z,16.57
2019-02-21T02:00:09.219Z,16.56
2019-02-21T02:02:36.217Z,16.54
2019-02-21T02:05:03.106Z,16.55
2019-02-21T02:07:30.492Z,16.56
2019-02-21T02:09:57.469Z,16.57
2019-02-21T02:12:24.504Z,16.53
2019-02-21T02:14:51.442Z,16.52
2019-02-21T02:17:18.399Z,16.47
2019-02-21T02:19:45.716Z,16.43
2019-02-21T02:22:13.284Z,16.41
2019-02-21T02:24:40.302Z,16.40
2019-02-21T02:27:07.882Z,16.36
2019-02-21T02:29:35.124Z,16.38
2019-02-21T02:32:02.022Z,16.37
2019-02-21T02:34:29.337Z,16.38
2019-02-21T02:36:56.322Z,16.39
2019-02-21T02:39:23.307Z,16.37
2019-02-21T02:41:51.085Z,16.35
2019-02-21T02:44:18.014Z,16.34
2019-02-21T02:46:44.995Z,16.32
2019-02-21T02:49:12.016Z,16.28
2019-02-21T02:51:38.980Z,16.30
2019-02-21T02:54:05.919Z,16.29
2019-02-21T02:56:33.301Z,16.32
2019-02-21T02:59:00.257Z,16.31
2019-02-21T03:01:34.646Z,16.27
2019-02-21T03:03:55.822Z,16.23
2019-02-21T03:06:23.099Z,16.22
2019-02-21T03:08:49.965Z,16.22
2019-02-21T03:11:17.191Z,16.23
2019-02-21T03:13:44.458Z,16.26
2019-02-21T03:16:11.449Z,16.25
2019-02-21T03:18:38.750Z,16.25
2019-02-21T03:21:05.715Z,16.25
2019-02-21T03:23:33.068Z,16.26
2019-02-21T03:26:00.046Z,16.25
2019-02-21T03:28:27.020Z,16.24
2019-02-21T03:30:54.317Z,16.23
2019-02-21T03:33:21.283Z,16.22
2019-02-21T03:35:48.491Z,16.23
2019-02-21T03:38:15.391Z,16.21
2019-02-21T03:40:42.353Z,16.22
2019-02-21T03:43:09.336Z,16.22
2019-02-21T03:45:36.245Z,16.22
2019-02-21T03:48:03.426Z,16.20
2019-02-21T03:50:30.678Z,16.19
2019-02-21T03:52:57.596Z,16.21
2019-02-21T03:55:24.575Z,16.21
2019-02-21T03:57:51.579Z,16.24
2019-02-21T04:00:18.526Z,16.25
2019-02-21T04:02:45.436Z,16.27
2019-02-21T04:05:12.873Z,16.29
2019-02-21T04:07:40.335Z,16.26
2019-02-21T04:10:07.592Z,16.25
2019-02-21T04:12:34.855Z,16.25
2019-02-21T04:15:01.738Z,16.24
2019-02-21T04:17:28.749Z,16.26
2019-02-21T04:19:56.006Z,16.24
2019-02-21T04:22:23.346Z,16.26
2019-02-21T04:24:50.248Z,16.25
2019-02-21T04:27:17.228Z,16.25
2019-02-21T04:29:44.471Z,16.28
2019-02-21T04:32:16.965Z,16.28
2019-02-21T04:34:40.162Z,16.28
2019-02-21T04:37:07.315Z,16.29
2019-02-21T04:39:34.259Z,16.31
2019-02-21T04:42:01.561Z,16.33
2019-02-21T04:44:28.560Z,16.35
2019-02-21T04:46:55.517Z,16.36
2019-02-21T04:49:22.425Z,16.38
2019-02-21T04:51:49.783Z,16.38
2019-02-21T04:54:18.902Z,16.37
2019-02-21T04:56:46.058Z,16.35
2019-02-21T04:59:13.303Z,16.34
2019-02-21T05:01:40.579Z,16.35
2019-02-21T05:04:07.499Z,16.33
2019-02-21T05:06:34.790Z,16.26
2019-02-21T05:09:02.151Z,16.25
2019-02-21T05:11:30.953Z,16.28
2019-02-21T05:13:57.957Z,16.27
2019-02-21T05:16:25.288Z,16.31
2019-02-21T05:18:52.267Z,16.34
2019-02-21T05:21:19.281Z,16.35
2019-02-21T05:23:46.158Z,16.41
2019-02-21T05:26:13.077Z,16.44
2019-02-21T05:28:41.264Z,16.46
2019-02-21T05:31:08.412Z,16.48
2019-02-21T05:33:35.383Z,16.50
2019-02-21T05:36:02.392Z,16.46
2019-02-21T05:38:29.322Z,16.39
2019-02-21T05:40:56.226Z,16.38
2019-02-21T05:43:23.220Z,16.37
2019-02-21T05:45:50.550Z,16.34
2019-02-21T05:48:17.827Z,16.35
2019-02-21T05:50:44.748Z,16.36
2019-02-21T05:53:12.004Z,16.33
2019-02-21T05:55:40.054Z,16.33
2019-02-21T05:58:07.062Z,16.35
2019-02-21T06:00:36.753Z,16.38
2019-02-21T06:03:02.858Z,16.35
2019-02-21T06:05:29.733Z,16.33
2019-02-21T06:07:56.624Z,16.32
2019-02-21T06:10:24.010Z,16.34
2019-02-21T06:12:50.997Z,16.30
2019-02-21T06:15:18.339Z,16.29
2019-02-21T06:17:45.414Z,16.25
2019-02-21T06:20:12.605Z,16.25
2019-02-21T06:22:39.589Z,16.23
2019-02-21T06:25:06.607Z,16.26
2019-02-21T06:27:34.559Z,16.30
2019-02-21T06:30:03.154Z,16.35
2019-02-21T06:32:30.597Z,16.40
2019-02-21T06:34:57.560Z,16.43
2019-02-21T06:37:25.664Z,16.49
2019-02-21T06:39:52.710Z,16.55
2019-02-21T06:42:21.311Z,16.58
2019-02-21T06:44:50.519Z,16.61
2019-02-21T06:47:17.412Z,16.63
2019-02-21T06:49:44.350Z,16.64
2019-02-21T06:52:11.619Z,16.65
2019-02-21T06:54:38.589Z,16.67
2019-02-21T06:57:05.787Z,16.67
2019-02-21T06:59:42.260Z,16.68
2019-02-21T07:02:01.656Z,16.74
2019-02-21T07:04:28.627Z,16.74
2019-02-21T07:06:56.856Z,16.76
2019-02-21T07:09:24.299Z,16.81
2019-02-21T07:11:51.552Z,16.78
2019-02-21T07:14:18.442Z,16.77
2019-02-21T07:16:45.394Z,16.79
2019-02-21T07:19:12.731Z,16.82
2019-02-21T07:21:39.639Z,16.86
2019-02-21T07:24:06.580Z,16.89
2019-02-21T07:26:33.607Z,16.91
2019-02-21T07:29:00.511Z,16.95
2019-02-21T07:31:29.009Z,16.96
2019-02-21T07:33:56.326Z,16.98
2019-02-21T07:36:23.345Z,17.00
2019-02-21T07:38:50.251Z,17.05
2019-02-21T07:41:18.645Z,17.08
2019-02-21T07:43:46.898Z,17.13
2019-02-21T07:46:15.834Z,17.19
2019-02-21T07:48:43.034Z,17.21
2019-02-21T07:51:10.318Z,17.23
2019-02-21T07:53:37.545Z,17.27
2019-02-21T07:56:04.497Z,17.30
2019-02-21T07:58:31.570Z,17.30
2019-02-21T08:00:58.521Z,17.32
2019-02-21T08:03:30.349Z,17.33
2019-02-21T08:05:54.701Z,17.35
2019-02-21T08:08:21.679Z,17.39
2019-02-21T08:10:49.023Z,17.46
2019-02-21T08:13:15.954Z,17.52
2019-02-21T08:15:43.196Z,17.56
2019-02-21T08:18:10.187Z,17.59
2019-02-21T08:20:40.910Z,17.62
2019-02-21T08:23:05.778Z,17.67
2019-02-21T08:25:32.715Z,17.68
2019-02-21T08:27:59.719Z,17.69
2019-02-21T08:30:29.028Z,17.74
2019-02-21T08:32:55.552Z,17.76
2019-02-21T08:35:22.537Z,17.67
2019-02-21T08:37:49.490Z,17.62
2019-02-21T08:40:16.385Z,17.63
2019-02-21T08:42:43.365Z,17.66
2019-02-21T08:45:10.263Z,17.70
2019-02-21T08:47:37.208Z,17.72
2019-02-21T08:50:04.153Z,17.70
2019-02-21T08:52:31.494Z,17.73
2019-02-21T08:55:00.488Z,17.76
2019-02-21T08:57:27.473Z,17.80
2019-02-21T08:59:54.421Z,17.85
2019-02-21T09:02:21.741Z,17.90
2019-02-21T09:04:48.995Z,17.93
2019-02-21T09:07:17.025Z,17.94
2019-02-21T09:09:44.007Z,17.88
2019-02-21T09:12:10.919Z,17.92
2019-02-21T09:14:37.870Z,17.95
2019-02-21T09:17:04.872Z,17.98
2019-02-21T09:19:32.089Z,18.07
2019-02-21T09:21:59.359Z,18.13
2019-02-21T09:24:38.250Z,18.18
2019-02-21T09:26:57.359Z,18.24
2019-02-21T09:29:23.786Z,18.25
2019-02-21T09:31:51.032Z,18.24
2019-02-21T09:34:21.173Z,18.26
2019-02-21T09:36:46.563Z,18.26
2019-02-21T09:39:15.933Z,18.15
2019-02-21T09:41:42.188Z,18.09
2019-02-21T09:44:09.155Z,18.09
2019-02-21T09:46:36.098Z,18.12
2019-02-21T09:49:03.144Z,18.14
2019-02-21T09:51:30.182Z,18.15
2019-02-21T09:53:57.426Z,18.18
2019-02-21T09:56:30.496Z,18.19
2019-02-21T09:58:54.463Z,18.12
2019-02-21T10:01:21.735Z,17.98
2019-02-21T10:03:48.990Z,18.03
2019-02-21T10:06:16.022Z,18.12
2019-02-21T10:08:42.981Z,18.15
2019-02-21T10:11:11.437Z,18.16
2019-02-21T10:13:38.712Z,18.23
2019-02-21T10:16:06.936Z,18.27
2019-02-21T10:18:41.717Z,18.28
2019-02-21T10:21:10.250Z,18.30
2019-02-21T10:23:38.591Z,18.35
2019-02-21T10:26:05.867Z,18.45
2019-02-21T10:28:33.086Z,18.56
2019-02-21T10:31:00.047Z,18.46
2019-02-21T10:33:27.391Z,18.28
2019-02-21T10:35:54.371Z,18.29
2019-02-21T10:38:21.698Z,18.34
2019-02-21T10:40:49.050Z,18.34
2019-02-21T10:43:16.360Z,18.41
2019-02-21T10:45:47.874Z,18.44
2019-02-21T10:48:11.825Z,18.43
2019-02-21T10:50:38.721Z,18.43
2019-02-21T10:53:06.053Z,18.37
2019-02-21T10:55:33.023Z,18.29
2019-02-21T10:57:59.909Z,18.31
2019-02-21T11:00:27.063Z,18.35
2019-02-21T11:02:55.238Z,18.39
2019-02-21T11:05:22.506Z,18.50
2019-02-21T11:07:49.472Z,18.64
2019-02-21T11:10:18.937Z,18.78
2019-02-21T11:12:45.029Z,18.78
2019-02-21T11:15:11.997Z,18.67
2019-02-21T11:17:39.183Z,18.54
2019-02-21T11:20:06.433Z,18.52
2019-02-21T11:22:34.813Z,18.48
2019-02-21T11:25:01.690Z,18.44
2019-02-21T11:27:29.002Z,18.48
2019-02-21T11:29:56.263Z,18.52
2019-02-21T11:32:23.529Z,18.56
2019-02-21T11:34:50.480Z,18.61
2019-02-21T11:37:17.708Z,18.66
2019-02-21T11:39:44.650Z,18.69
2019-02-21T11:42:11.535Z,18.69
2019-02-21T11:44:38.427Z,18.70
2019-02-21T11:47:05.390Z,18.68
2019-02-21T11:49:32.642Z,18.65
2019-02-21T11:52:09.612Z,18.64
2019-02-21T11:54:28.477Z,18.62
2019-02-21T11:56:55.743Z,18.63
2019-02-21T11:59:22.696Z,18.67
2019-02-21T12:01:49.663Z,18.71
2019-02-21T12:04:16.596Z,18.74
2019-02-21T12:06:43.812Z,18.76
2019-02-21T12:09:10.715Z,18.76
2019-02-21T12:11:38.029Z,18.70
2019-02-21T12:14:04.930Z,18.69
2019-02-21T12:16:31.805Z,18.71
2019-02-21T12:18:58.810Z,18.72
2019-02-21T12:21:25.733Z,18.73
2019-02-21T12:23:52.973Z,18.70
2019-02-21T12:26:20.417Z,18.69
2019-02-21T12:28:47.378Z,18.75
2019-02-21T12:31:14.251Z,18.80
2019-02-21T12:33:41.470Z,18.79
2019-02-21T12:36:08.774Z,18.77
2019-02-21T12:38:36.058Z,18.79
2019-02-21T12:41:03.082Z,18.85
2019-02-21T12:43:29.985Z,18.82
2019-02-21T12:45:57.199Z,18.88
2019-02-21T12:48:24.470Z,18.97
2019-02-21T12:50:51.826Z,19.03
2019-02-21T12:53:18.767Z,19.09
2019-02-21T12:55:45.693Z,19.12
2019-02-21T12:58:12.665Z,19.16
2019-02-21T13:00:43.225Z,19.15
2019-02-21T13:03:10.193Z,19.12
2019-02-21T13:05:41.025Z,18.98
2019-02-21T13:08:05.774Z,18.80
2019-02-21T13:10:34.871Z,18.69
2019-02-21T13:13:01.382Z,18.70
2019-02-21T13:15:28.642Z,18.76
2019-02-21T13:17:55.653Z,18.86
2019-02-21T13:20:22.620Z,18.80
2019-02-21T13:22:49.902Z,18.76
2019-02-21T13:25:16.850Z,18.75
2019-02-21T13:27:44.105Z,18.77
2019-02-21T13:30:11.337Z,18.83
2019-02-21T13:32:38.602Z,18.93
2019-02-21T13:35:05.584Z,18.90
2019-02-21T13:37:32.458Z,18.82
2019-02-21T13:40:00.593Z,18.86
2019-02-21T13:42:28.843Z,18.78
2019-02-21T13:44:56.203Z,18.71
2019-02-21T13:47:23.154Z,18.81
2019-02-21T13:49:50.467Z,18.86
2019-02-21T13:52:17.428Z,18.96
2019-02-21T13:54:44.424Z,18.95
2019-02-21T13:57:11.757Z,18.98
2019-02-21T13:59:38.726Z,19.07
2019-02-21T14:02:05.672Z,19.10
2019-02-21T14:04:32.624Z,19.15
2019-02-21T14:06:59.824Z,19.19
2019-02-21T14:09:26.811Z,19.17
2019-02-21T14:11:54.051Z,19.11
2019-02-21T14:14:21.265Z,19.04
2019-02-21T14:16:48.144Z,19.08
2019-02-21T14:19:15.029Z,19.12
2019-02-21T14:21:43.796Z,19.17
2019-02-21T14:24:10.937Z,19.12
2019-02-21T14:26:38.192Z,19.02
2019-02-21T14:29:05.553Z,19.00
2019-02-21T14:31:33.646Z,18.91
2019-02-21T14:34:00.629Z,18.93
2019-02-21T14:36:27.899Z,18.91
2019-02-21T14:38:54.878Z,18.86
2019-02-21T14:41:21.818Z,18.87
2019-02-21T14:43:49.017Z,18.92
2019-02-21T14:46:17.378Z,18.98
2019-02-21T14:48:44.370Z,19.00
2019-02-21T14:51:11.347Z,19.00
2019-02-21T14:53:38.290Z,18.93
2019-02-21T14:56:05.554Z,18.93
2019-02-21T14:58:32.431Z,18.85
2019-02-21T15:00:59.324Z,18.85
2019-02-21T15:03:26.230Z,18.86
2019-02-21T15:05:53.279Z,18.90
2019-02-21T15:08:22.052Z,18.90
2019-02-21T15:10:48.908Z,18.75
2019-02-21T15:13:16.176Z,18.67
2019-02-21T15:15:43.147Z,18.58
2019-02-21T15:18:11.306Z,18.52
2019-02-21T15:20:38.714Z,18.57
2019-02-21T15:23:05.588Z,18.62
2019-02-21T15:25:32.767Z,18.69
2019-02-21T15:27:59.654Z,18.74
2019-02-21T15:30:26.623Z,18.76
2019-02-21T15:32:53.617Z,18.83
2019-02-21T15:35:20.658Z,18.90
2019-02-21T15:37:47.653Z,18.92
2019-02-21T15:40:14.767Z,18.90
2019-02-21T15:42:42.741Z,18.82
2019-02-21T15:45:09.790Z,18.82
2019-02-21T15:47:36.749Z,18.86
2019-02-21T15:50:03.739Z,18.89
2019-02-21T15:52:31.036Z,18.90
2019-02-21T15:54:58.000Z,18.89
2019-02-21T15:57:25.018Z,18.88
2019-02-21T15:59:52.412Z,18.87
2019-02-21T16:02:19.374Z,18.89
2019-02-21T16:04:46.397Z,18.89
2019-02-21T16:07:13.361Z,18.91
2019-02-21T16:09:40.647Z,18.91
2019-02-21T16:12:07.684Z,18.91
2019-02-21T16:14:37.633Z,18.90
2019-02-21T16:17:03.916Z,18.93
2019-02-21T16:19:31.192Z,18.94
2019-02-21T16:21:58.452Z,18.96
2019-02-21T16:24:25.390Z,18.99
2019-02-21T16:26:52.304Z,19.01
2019-02-21T16:29:19.309Z,19.01
2019-02-21T16:31:46.548Z,19.00
2019-02-21T16:34:13.964Z,18.99
2019-02-21T16:36:41.403Z,19.00
2019-02-21T16:39:08.317Z,18.98
2019-02-21T16:41:39.000Z,18.94
2019-02-21T16:44:06.380Z,18.92
2019-02-21T16:46:34.755Z,18.94
2019-02-21T16:49:01.751Z,18.91
2019-02-21T16:51:32.129Z,18.88
2019-02-21T16:54:01.480Z,18.92
2019-02-21T16:56:28.667Z,18.91
2019-02-21T16:58:55.701Z,18.92
2019-02-21T17:01:22.632Z,18.93
2019-02-21T17:03:49.941Z,18.95
2019-02-21T17:06:18.389Z,18.95
2019-02-21T17:08:45.928Z,18.98
2019-02-21T17:11:13.416Z,18.97
2019-02-21T17:13:40.458Z,18.95
2019-02-21T17:16:07.875Z,18.93
2019-02-21T17:18:36.812Z,18.91
2019-02-21T17:21:03.793Z,18.82
2019-02-21T17:23:30.788Z,18.73
2019-02-21T17:25:57.848Z,18.70
2019-02-21T17:28:25.159Z,18.74
2019-02-21T17:30:52.773Z,18.77
2019-02-21T17:33:22.155Z,18.75
2019-02-21T17:35:50.870Z,18.72
2019-02-21T17:38:18.116Z,18.70
2019-02-21T17:40:45.055Z,18.71
2019-02-21T17:43:12.566Z,18.71
2019-02-21T17:45:39.624Z,18.69
2019-02-21T17:48:06.721Z,18.71
2019-02-21T17:50:33.829Z,18.74
2019-02-21T17:53:00.889Z,18.77
2019-02-21T17:55:30.575Z,18.75
2019-02-21T17:57:57.899Z,18.79
2019-02-21T18:00:24.953Z,18.76
2019-02-21T18:02:51.894Z,18.77
2019-02-21T18:05:18.817Z,18.73
2019-02-21T18:07:45.967Z,18.63
2019-02-21T18:10:14.055Z,18.54
2019-02-21T18:12:41.047Z,18.52
2019-02-21T18:15:08.466Z,18.51
2019-02-21T18:17:35.345Z,18.49
2019-02-21T18:20:02.405Z,18.49
2019-02-21T18:22:31.027Z,18.42
2019-02-21T18:24:59.523Z,18.39
2019-02-21T18:27:35.674Z,18.44
2019-02-21T18:30:03.110Z,18.43
2019-02-21T18:32:31.756Z,18.49
2019-02-21T18:34:58.786Z,18.49
2019-02-21T18:37:26.123Z,18.47
2019-02-21T18:39:53.062Z,18.45
2019-02-21T18:42:20.544Z,18.51
2019-02-21T18:44:49.474Z,18.52
2019-02-21T18:47:22.900Z,18.33
2019-02-21T18:49:51.534Z,18.26
2019-02-21T18:52:20.218Z,18.18
2019-02-21T18:54:52.042Z,18.21
2019-02-21T18:57:16.147Z,18.26
2019-02-21T18:59:48.111Z,18.26
2019-02-21T19:02:15.518Z,18.21
2019-02-21T19:04:42.865Z,18.18
2019-02-21T19:07:09.968Z,18.19
2019-02-21T19:09:37.028Z,18.25
2019-02-21T19:12:06.526Z,18.34
2019-02-21T19:14:35.261Z,18.37
2019-02-21T19:17:05.321Z,18.40
2019-02-21T19:19:32.303Z,18.39
2019-02-21T19:25:56.655Z,18.43
2019-02-21T19:27:02.692Z,18.45
2019-02-21T19:29:29.978Z,18.43
2019-02-21T19:31:56.950Z,18.43
2019-02-21T19:34:33.674Z,18.41
2019-02-21T19:37:01.619Z,18.43
2019-02-21T19:39:35.441Z,18.45
2019-02-21T19:42:02.179Z,18.42
2019-02-21T19:44:29.247Z,18.39
2019-02-21T19:46:56.248Z,18.38
2019-02-21T19:49:23.225Z,18.39
2019-02-21T19:51:51.926Z,18.41
2019-02-21T19:54:19.135Z,18.41
2019-02-21T19:56:50.305Z,18.40
2019-02-21T19:59:18.411Z,18.37
2019-02-21T20:01:45.822Z,18.37
2019-02-21T20:04:12.805Z,18.35
2019-02-21T20:06:39.999Z,18.34
2019-02-21T20:09:09.468Z,18.34
2019-02-21T20:11:37.288Z,18.33
2019-02-21T20:14:06.985Z,18.32
2019-02-21T20:16:36.687Z,18.33
2019-02-21T20:19:05.338Z,18.26
2019-02-21T20:21:32.418Z,18.24
2019-02-21T20:23:59.463Z,18.27
2019-02-21T20:26:27.611Z,18.27
2019-02-21T20:28:55.880Z,18.26
2019-02-21T20:31:22.835Z,18.26
2019-02-21T20:33:50.058Z,18.27
2019-02-21T20:36:17.138Z,18.29
2019-02-21T20:38:44.304Z,18.26
2019-02-21T20:41:13.493Z,18.24
2019-02-21T20:43:40.818Z,18.24
2019-02-21T20:46:09.514Z,18.21
2019-02-21T20:48:37.630Z,18.20
2019-02-21T20:51:09.088Z,18.24
2019-02-21T20:53:37.314Z,18.26
2019-02-21T20:56:06.200Z,18.25
2019-02-21T20:58:33.008Z,18.27
2019-02-21T21:01:00.001Z,18.20
2019-02-21T21:03:28.461Z,18.17
2019-02-21T21:06:00.385Z,18.05
2019-02-21T21:08:29.085Z,18.00
2019-02-21T21:10:56.595Z,17.95
2019-02-21T21:13:23.562Z,17.93
2019-02-21T21:15:50.606Z,17.63
2019-02-21T21:18:17.850Z,17.84
2019-02-21T21:20:45.086Z,17.82
2019-02-21T21:23:12.500Z,17.84
2019-02-21T21:25:42.794Z,17.72
2019-02-21T21:28:10.218Z,17.62
2019-02-21T21:30:37.708Z,17.60
2019-02-21T21:33:10.520Z,17.70
2019-02-21T21:35:39.553Z,17.74
2019-02-21T21:38:11.133Z,17.82
2019-02-21T21:40:38.092Z,17.86
2019-02-21T21:43:06.197Z,17.86
2019-02-21T21:45:33.255Z,17.87
2019-02-21T21:48:01.957Z,17.89
2019-02-21T21:50:29.020Z,17.91
2019-02-21T21:52:56.057Z,17.81
2019-02-21T21:55:23.133Z,17.86
2019-02-21T21:57:50.657Z,17.89
2019-02-21T22:00:18.095Z,17.81
2019-02-21T22:02:45.680Z,17.73
2019-02-21T22:05:14.039Z,17.67
2019-02-21T22:07:41.094Z,17.61
2019-02-21T22:10:08.131Z,17.54
2019-02-21T22:12:35.296Z,17.54
2019-02-21T22:15:04.112Z,17.50
2019-02-21T22:17:32.698Z,17.49
2019-02-21T22:19:59.742Z,17.45
2019-02-21T22:22:26.777Z,17.37
2019-02-21T22:24:53.822Z,17.40
2019-02-21T22:27:24.818Z,17.43
2019-02-21T22:29:52.375Z,17.33
2019-02-21T22:32:19.331Z,17.35
2019-02-21T22:34:47.546Z,17.42
2019-02-21T22:37:14.530Z,17.43
2019-02-21T22:39:41.594Z,17.44
2019-02-21T22:42:08.931Z,17.40
2019-02-21T22:44:35.969Z,17.40
2019-02-21T22:47:03.006Z,17.38
2019-02-21T22:49:29.904Z,17.41
2019-02-21T22:51:56.852Z,17.41
2019-02-21T22:54:24.078Z,17.36
2019-02-21T22:56:51.555Z,17.37
2019-02-21T22:59:19.988Z,17.34
2019-02-21T23:01:49.962Z,17.34
2019-02-21T23:04:17.011Z,17.28
2019-02-21T23:06:44.027Z,17.16
2019-02-21T23:09:13.228Z,17.19
2019-02-21T23:11:40.202Z,17.30
2019-02-21T23:14:07.392Z,17.35
2019-02-21T23:16:34.678Z,17.31
2019-02-21T23:19:02.215Z,17.25
2019-02-21T23:21:29.149Z,17.29
2019-02-21T23:23:56.316Z,17.23
2019-02-21T23:26:24.048Z,17.25
2019-02-21T23:28:51.068Z,17.35
2019-02-21T23:31:18.077Z,17.35
2019-02-21T23:33:45.137Z,17.26
2019-02-21T23:36:12.604Z,17.19
2019-02-21T23:38:39.571Z,17.18
2019-02-21T23:41:08.235Z,17.20
2019-02-21T23:43:35.515Z,17.26
2019-02-21T23:46:02.612Z,17.30
2019-02-21T23:48:29.632Z,17.36
2019-02-21T23:50:57.057Z,17.36
2019-02-21T23:53:24.050Z,17.42
2019-02-21T23:55:51.325Z,17.43
2019-02-21T23:58:18.302Z,17.31
